sensor_id;sensor_type;location;lat;lon;timestamp;pressure;altitude;pressure_sealevel;temperature;humidity
70841;BME280;58465;51.534;9.934;2023-01-23T00:01:03;101653.47;;;3.25;75.44
70841;BME280;58465;51.534;9.934;2023-01-23T00:03:29;101647.22;;;3.23;75.44
70841;BME280;58465;51.534;9.934;2023-01-23T00:08:22;101650.91;;;3.28;75.20
70841;BME280;58465;51.534;9.934;2023-01-23T00:10:47;101644.69;;;3.26;75.41
70841;BME280;58465;51.534;9.934;2023-01-23T00:13:13;101644.88;;;3.32;75.36
70841;BME280;58465;51.534;9.934;2023-01-23T00:15:38;101645.34;;;3.47;74.93
70841;BME280;58465;51.534;9.934;2023-01-23T00:18:04;101639.47;;;3.56;74.47
70841;BME280;58465;51.534;9.934;2023-01-23T00:20:29;101639.63;;;3.60;74.38
70841;BME280;58465;51.534;9.934;2023-01-23T00:22:54;101631.81;;;3.63;74.26
70841;BME280;58465;51.534;9.934;2023-01-23T00:25:20;101638.94;;;3.67;74.21
70841;BME280;58465;51.534;9.934;2023-01-23T00:27:45;101643.44;;;3.70;74.10
70841;BME280;58465;51.534;9.934;2023-01-23T00:30:10;101639.06;;;3.70;73.96
70841;BME280;58465;51.534;9.934;2023-01-23T00:32:37;101646.19;;;3.73;74.34
70841;BME280;58465;51.534;9.934;2023-01-23T00:35:03;101638.53;;;3.54;74.39
70841;BME280;58465;51.534;9.934;2023-01-23T00:37:28;101634.00;;;3.50;74.50
70841;BME280;58465;51.534;9.934;2023-01-23T00:39:53;101635.00;;;3.53;74.46
70841;BME280;58465;51.534;9.934;2023-01-23T00:42:18;101647.16;;;3.48;74.71
70841;BME280;58465;51.534;9.934;2023-01-23T00:44:44;101645.22;;;3.43;74.70
70841;BME280;58465;51.534;9.934;2023-01-23T00:47:09;101652.38;;;3.45;74.81
70841;BME280;58465;51.534;9.934;2023-01-23T00:49:34;101649.13;;;3.54;74.75
70841;BME280;58465;51.534;9.934;2023-01-23T00:51:59;101652.84;;;3.60;74.44
70841;BME280;58465;51.534;9.934;2023-01-23T00:54:25;101655.44;;;3.59;74.53
70841;BME280;58465;51.534;9.934;2023-01-23T00:56:51;101648.50;;;3.62;74.46
70841;BME280;58465;51.534;9.934;2023-01-23T00:59:16;101648.28;;;3.56;74.62
70841;BME280;58465;51.534;9.934;2023-01-23T01:01:41;101651.22;;;3.65;74.42
70841;BME280;58465;51.534;9.934;2023-01-23T01:04:07;101661.66;;;3.61;74.29
70841;BME280;58465;51.534;9.934;2023-01-23T01:06:32;101667.72;;;3.58;74.26
70841;BME280;58465;51.534;9.934;2023-01-23T01:08:58;101669.13;;;3.47;74.63
70841;BME280;58465;51.534;9.934;2023-01-23T01:11:24;101675.53;;;3.54;74.62
70841;BME280;58465;51.534;9.934;2023-01-23T01:13:49;101680.75;;;3.52;75.06
70841;BME280;58465;51.534;9.934;2023-01-23T01:16:14;101679.97;;;3.55;74.76
70841;BME280;58465;51.534;9.934;2023-01-23T01:18:40;101677.91;;;3.46;75.17
70841;BME280;58465;51.534;9.934;2023-01-23T01:21:08;101681.25;;;3.41;75.27
70841;BME280;58465;51.534;9.934;2023-01-23T01:23:34;101677.53;;;3.34;75.45
70841;BME280;58465;51.534;9.934;2023-01-23T01:26:00;101690.69;;;3.32;75.63
70841;BME280;58465;51.534;9.934;2023-01-23T01:28:26;101696.09;;;3.37;75.68
70841;BME280;58465;51.534;9.934;2023-01-23T01:30:54;101698.06;;;3.43;75.47
70841;BME280;58465;51.534;9.934;2023-01-23T01:33:19;101687.44;;;3.41;75.56
70841;BME280;58465;51.534;9.934;2023-01-23T01:35:44;101690.69;;;3.32;76.06
70841;BME280;58465;51.534;9.934;2023-01-23T01:38:09;101691.63;;;3.34;75.88
70841;BME280;58465;51.534;9.934;2023-01-23T01:40:35;101687.25;;;3.35;75.84
70841;BME280;58465;51.534;9.934;2023-01-23T01:43:05;101689.34;;;3.45;75.76
70841;BME280;58465;51.534;9.934;2023-01-23T01:51:31;101699.00;;;3.45;75.59
70841;BME280;58465;51.534;9.934;2023-01-23T01:54:10;101700.03;;;3.50;75.35
70841;BME280;58465;51.534;9.934;2023-01-23T01:56:42;101703.28;;;3.41;75.66
70841;BME280;58465;51.534;9.934;2023-01-23T01:59:10;101707.56;;;3.38;75.77
70841;BME280;58465;51.534;9.934;2023-01-23T02:01:36;101709.06;;;3.29;76.14
70841;BME280;58465;51.534;9.934;2023-01-23T02:04:03;101708.28;;;3.32;76.09
70841;BME280;58465;51.534;9.934;2023-01-23T02:06:30;101708.50;;;3.40;75.83
70841;BME280;58465;51.534;9.934;2023-01-23T02:09:09;101709.47;;;3.42;75.93
70841;BME280;58465;51.534;9.934;2023-01-23T02:11:38;101709.41;;;3.40;75.83
70841;BME280;58465;51.534;9.934;2023-01-23T02:14:03;101709.47;;;3.42;75.92
70841;BME280;58465;51.534;9.934;2023-01-23T02:16:32;101709.34;;;3.39;75.86
70841;BME280;58465;51.534;9.934;2023-01-23T02:19:10;101714.75;;;3.42;75.80
70841;BME280;58465;51.534;9.934;2023-01-23T02:21:39;101718.34;;;3.44;75.76
70841;BME280;58465;51.534;9.934;2023-01-23T02:24:19;101710.31;;;3.41;75.69
70841;BME280;58465;51.534;9.934;2023-01-23T02:26:49;101707.72;;;3.42;75.59
70841;BME280;58465;51.534;9.934;2023-01-23T02:29:15;101716.38;;;3.38;75.58
70841;BME280;58465;51.534;9.934;2023-01-23T02:31:43;101718.09;;;3.36;75.62
70841;BME280;58465;51.534;9.934;2023-01-23T02:34:11;101715.53;;;3.39;75.50
70841;BME280;58465;51.534;9.934;2023-01-23T02:36:39;101725.31;;;3.42;75.33
70841;BME280;58465;51.534;9.934;2023-01-23T02:39:17;101724.25;;;3.36;75.44
70841;BME280;58465;51.534;9.934;2023-01-23T02:41:47;101729.69;;;3.41;75.27
70841;BME280;58465;51.534;9.934;2023-01-23T02:44:28;101736.66;;;3.39;75.32
70841;BME280;58465;51.534;9.934;2023-01-23T02:47:00;101731.94;;;3.29;75.49
70841;BME280;58465;51.534;9.934;2023-01-23T02:49:27;101738.56;;;3.18;75.74
70841;BME280;58465;51.534;9.934;2023-01-23T02:51:53;101742.09;;;3.17;75.91
70841;BME280;58465;51.534;9.934;2023-01-23T02:54:20;101744.75;;;3.18;76.04
70841;BME280;58465;51.534;9.934;2023-01-23T02:56:46;101743.06;;;3.20;75.98
70841;BME280;58465;51.534;9.934;2023-01-23T02:59:11;101751.06;;;3.22;76.01
70841;BME280;58465;51.534;9.934;2023-01-23T03:01:55;101751.91;;;3.21;76.02
70841;BME280;58465;51.534;9.934;2023-01-23T03:04:21;101752.00;;;3.24;76.15
70841;BME280;58465;51.534;9.934;2023-01-23T03:06:46;101760.97;;;3.29;75.74
70841;BME280;58465;51.534;9.934;2023-01-23T03:09:13;101763.16;;;3.41;75.81
70841;BME280;58465;51.534;9.934;2023-01-23T03:11:41;101761.47;;;3.43;75.69
70841;BME280;58465;51.534;9.934;2023-01-23T03:14:08;101756.31;;;3.47;75.54
70841;BME280;58465;51.534;9.934;2023-01-23T03:16:34;101755.41;;;3.47;75.34
70841;BME280;58465;51.534;9.934;2023-01-23T03:19:02;101760.75;;;3.48;75.43
70841;BME280;58465;51.534;9.934;2023-01-23T03:21:31;101767.94;;;3.52;75.44
70841;BME280;58465;51.534;9.934;2023-01-23T03:23:56;101768.94;;;3.56;75.32
70841;BME280;58465;51.534;9.934;2023-01-23T03:26:22;101764.53;;;3.56;75.33
70841;BME280;58465;51.534;9.934;2023-01-23T03:28:48;101776.00;;;3.57;75.17
70841;BME280;58465;51.534;9.934;2023-01-23T03:31:31;101767.16;;;3.55;75.00
70841;BME280;58465;51.534;9.934;2023-01-23T03:33:57;101772.81;;;3.67;74.72
70841;BME280;58465;51.534;9.934;2023-01-23T03:36:22;101764.75;;;3.62;74.94
70841;BME280;58465;51.534;9.934;2023-01-23T03:38:47;101760.25;;;3.60;74.71
70841;BME280;58465;51.534;9.934;2023-01-23T03:41:31;101749.63;;;3.58;74.70
70841;BME280;58465;51.534;9.934;2023-01-23T03:43:56;101763.56;;;3.53;75.01
70841;BME280;58465;51.534;9.934;2023-01-23T03:46:22;101761.00;;;3.56;74.86
70841;BME280;58465;51.534;9.934;2023-01-23T03:48:47;101764.41;;;3.52;74.97
70841;BME280;58465;51.534;9.934;2023-01-23T03:51:12;101761.88;;;3.55;74.97
70841;BME280;58465;51.534;9.934;2023-01-23T03:53:38;101764.53;;;3.56;75.08
70841;BME280;58465;51.534;9.934;2023-01-23T03:56:03;101757.56;;;3.58;75.22
70841;BME280;58465;51.534;9.934;2023-01-23T03:58:29;101767.34;;;3.61;74.90
70841;BME280;58465;51.534;9.934;2023-01-23T04:00:55;101773.41;;;3.58;74.68
70841;BME280;58465;51.534;9.934;2023-01-23T04:03:20;101779.50;;;3.56;74.95
70841;BME280;58465;51.534;9.934;2023-01-23T04:05:45;101780.06;;;3.46;75.50
70841;BME280;58465;51.534;9.934;2023-01-23T04:08:11;101783.69;;;3.49;75.46
70841;BME280;58465;51.534;9.934;2023-01-23T04:10:36;101789.88;;;3.50;75.67
70841;BME280;58465;51.534;9.934;2023-01-23T04:13:02;101777.81;;;3.58;75.20
70841;BME280;58465;51.534;9.934;2023-01-23T04:15:27;101785.13;;;3.66;74.86
70841;BME280;58465;51.534;9.934;2023-01-23T04:17:53;101785.19;;;3.68;75.12
70841;BME280;58465;51.534;9.934;2023-01-23T04:20:18;101785.31;;;3.71;74.94
70841;BME280;58465;51.534;9.934;2023-01-23T04:22:43;101788.59;;;3.64;75.08
70841;BME280;58465;51.534;9.934;2023-01-23T04:25:09;101789.53;;;3.66;75.23
70841;BME280;58465;51.534;9.934;2023-01-23T04:27:34;101787.03;;;3.70;74.99
70841;BME280;58465;51.534;9.934;2023-01-23T04:30:00;101790.59;;;3.71;74.99
70841;BME280;58465;51.534;9.934;2023-01-23T04:32:25;101790.94;;;3.82;74.72
70841;BME280;58465;51.534;9.934;2023-01-23T04:34:50;101788.97;;;3.76;74.49
70841;BME280;58465;51.534;9.934;2023-01-23T04:37:16;101784.41;;;3.70;74.75
70841;BME280;58465;51.534;9.934;2023-01-23T04:39:41;101786.19;;;3.71;74.96
70841;BME280;58465;51.534;9.934;2023-01-23T04:42:07;101778.09;;;3.67;74.85
70841;BME280;58465;51.534;9.934;2023-01-23T04:44:33;101788.91;;;3.73;74.91
70841;BME280;58465;51.534;9.934;2023-01-23T04:46:58;101789.63;;;3.69;74.89
70841;BME280;58465;51.534;9.934;2023-01-23T04:49:24;101799.56;;;3.76;74.94
70841;BME280;58465;51.534;9.934;2023-01-23T04:51:50;101786.69;;;3.87;74.74
70841;BME280;58465;51.534;9.934;2023-01-23T04:54:17;101794.56;;;3.85;74.51
70841;BME280;58465;51.534;9.934;2023-01-23T04:56:43;101797.03;;;3.79;74.78
70841;BME280;58465;51.534;9.934;2023-01-23T04:59:09;101796.66;;;3.68;74.83
70841;BME280;58465;51.534;9.934;2023-01-23T05:01:35;101803.63;;;3.66;75.02
70841;BME280;58465;51.534;9.934;2023-01-23T05:04:00;101792.22;;;3.67;75.02
70841;BME280;58465;51.534;9.934;2023-01-23T05:06:25;101791.31;;;3.67;74.95
70841;BME280;58465;51.534;9.934;2023-01-23T05:08:50;101781.75;;;3.70;75.01
70841;BME280;58465;51.534;9.934;2023-01-23T05:11:16;101784.41;;;3.70;74.54
70841;BME280;58465;51.534;9.934;2023-01-23T05:13:42;101784.41;;;3.70;74.56
70841;BME280;58465;51.534;9.934;2023-01-23T05:16:07;101787.19;;;3.75;74.33
70841;BME280;58465;51.534;9.934;2023-01-23T05:18:32;101789.16;;;3.81;74.15
70841;BME280;58465;51.534;9.934;2023-01-23T05:20:58;101789.16;;;3.81;74.20
70841;BME280;58465;51.534;9.934;2023-01-23T05:23:23;101791.63;;;3.76;74.24
70841;BME280;58465;51.534;9.934;2023-01-23T05:25:48;101789.81;;;3.75;74.35
70841;BME280;58465;51.534;9.934;2023-01-23T05:28:14;101786.56;;;3.82;74.07
70841;BME280;58465;51.534;9.934;2023-01-23T05:30:39;101785.72;;;3.85;74.05
70841;BME280;58465;51.534;9.934;2023-01-23T05:33:04;101790.00;;;3.80;74.13
70841;BME280;58465;51.534;9.934;2023-01-23T05:35:30;101788.13;;;3.77;74.25
70841;BME280;58465;51.534;9.934;2023-01-23T05:37:55;101793.38;;;3.76;74.09
70841;BME280;58465;51.534;9.934;2023-01-23T05:40:21;101786.50;;;3.81;74.25
70841;BME280;58465;51.534;9.934;2023-01-23T05:42:47;101793.34;;;3.74;74.48
70841;BME280;58465;51.534;9.934;2023-01-23T05:45:12;101799.53;;;3.75;74.60
70841;BME280;58465;51.534;9.934;2023-01-23T05:47:38;101797.91;;;3.80;74.20
70841;BME280;58465;51.534;9.934;2023-01-23T05:50:04;101795.16;;;3.77;74.43
70841;BME280;58465;51.534;9.934;2023-01-23T05:52:30;101797.88;;;3.78;74.47
70841;BME280;58465;51.534;9.934;2023-01-23T05:54:55;101790.88;;;3.80;74.29
70841;BME280;58465;51.534;9.934;2023-01-23T05:57:21;101796.06;;;3.77;74.47
70841;BME280;58465;51.534;9.934;2023-01-23T05:59:47;101803.16;;;3.78;74.19
70841;BME280;58465;51.534;9.934;2023-01-23T06:02:12;101803.94;;;3.76;74.31
70841;BME280;58465;51.534;9.934;2023-01-23T06:04:37;101807.47;;;3.75;74.33
70841;BME280;58465;51.534;9.934;2023-01-23T06:07:03;101813.03;;;3.84;74.31
70841;BME280;58465;51.534;9.934;2023-01-23T06:09:28;101810.72;;;3.94;73.84
70841;BME280;58465;51.534;9.934;2023-01-23T06:11:53;101814.31;;;3.96;73.62
70841;BME280;58465;51.534;9.934;2023-01-23T06:14:19;101817.44;;;3.83;73.93
70841;BME280;58465;51.534;9.934;2023-01-23T06:16:44;101813.47;;;3.70;74.18
70841;BME280;58465;51.534;9.934;2023-01-23T06:19:09;101823.03;;;3.67;74.76
70841;BME280;58465;51.534;9.934;2023-01-23T06:21:35;101826.22;;;3.82;74.08
70841;BME280;58465;51.534;9.934;2023-01-23T06:24:00;101830.91;;;3.91;73.78
70841;BME280;58465;51.534;9.934;2023-01-23T06:26:25;101835.63;;;4.01;73.85
70841;BME280;58465;51.534;9.934;2023-01-23T06:28:50;101833.72;;;3.97;73.61
70841;BME280;58465;51.534;9.934;2023-01-23T06:31:16;101837.94;;;3.90;73.71
70841;BME280;58465;51.534;9.934;2023-01-23T06:33:41;101835.88;;;3.82;74.10
70841;BME280;58465;51.534;9.934;2023-01-23T06:36:07;101842.84;;;3.80;74.53
70841;BME280;58465;51.534;9.934;2023-01-23T06:38:32;101848.50;;;3.90;74.00
70841;BME280;58465;51.534;9.934;2023-01-23T06:40:57;101854.81;;;3.95;73.85
70841;BME280;58465;51.534;9.934;2023-01-23T06:43:23;101848.13;;;4.06;73.69
70841;BME280;58465;51.534;9.934;2023-01-23T06:45:49;101856.13;;;4.08;73.35
70841;BME280;58465;51.534;9.934;2023-01-23T06:48:15;101862.44;;;4.12;73.42
70841;BME280;58465;51.534;9.934;2023-01-23T06:50:41;101859.91;;;4.16;73.23
70841;BME280;58465;51.534;9.934;2023-01-23T06:53:08;101868.81;;;4.18;73.02
70841;BME280;58465;51.534;9.934;2023-01-23T06:55:34;101870.84;;;4.27;72.80
70841;BME280;58465;51.534;9.934;2023-01-23T06:57:59;101871.75;;;4.27;72.62
70841;BME280;58465;51.534;9.934;2023-01-23T07:00:25;101879.69;;;4.27;72.60
70841;BME280;58465;51.534;9.934;2023-01-23T07:02:51;101880.41;;;4.23;72.92
70841;BME280;58465;51.534;9.934;2023-01-23T07:05:17;101880.22;;;4.17;72.98
70841;BME280;58465;51.534;9.934;2023-01-23T07:07:43;101881.06;;;4.16;72.59
70841;BME280;58465;51.534;9.934;2023-01-23T07:10:09;101882.13;;;4.21;72.70
70841;BME280;58465;51.534;9.934;2023-01-23T07:12:34;101890.25;;;4.27;72.66
70841;BME280;58465;51.534;9.934;2023-01-23T07:14:59;101889.31;;;4.25;72.25
70841;BME280;58465;51.534;9.934;2023-01-23T07:17:24;101892.19;;;4.33;72.04
70841;BME280;58465;51.534;9.934;2023-01-23T07:19:50;101893.91;;;4.31;72.13
70841;BME280;58465;51.534;9.934;2023-01-23T07:22:17;101891.06;;;4.25;72.24
70841;BME280;58465;51.534;9.934;2023-01-23T07:24:42;101900.78;;;4.26;72.51
70841;BME280;58465;51.534;9.934;2023-01-23T07:27:08;101903.66;;;4.33;72.44
70841;BME280;58465;51.534;9.934;2023-01-23T07:29:33;101905.75;;;4.43;72.41
70841;BME280;58465;51.534;9.934;2023-01-23T07:31:58;101915.25;;;4.37;72.41
70841;BME280;58465;51.534;9.934;2023-01-23T07:34:25;101911.81;;;4.39;72.04
70841;BME280;58465;51.534;9.934;2023-01-23T07:36:50;101921.50;;;4.39;71.76
70841;BME280;58465;51.534;9.934;2023-01-23T07:39:15;101916.00;;;4.33;72.16
70841;BME280;58465;51.534;9.934;2023-01-23T07:41:40;101911.31;;;4.24;72.49
70841;BME280;58465;51.534;9.934;2023-01-23T07:44:06;101906.31;;;4.33;72.25
70841;BME280;58465;51.534;9.934;2023-01-23T07:46:31;101906.88;;;4.23;71.58
70841;BME280;58465;51.534;9.934;2023-01-23T07:48:56;101910.53;;;4.27;71.25
70841;BME280;58465;51.534;9.934;2023-01-23T07:51:21;101907.03;;;4.28;70.93
70841;BME280;58465;51.534;9.934;2023-01-23T07:53:46;101912.63;;;4.37;70.62
70841;BME280;58465;51.534;9.934;2023-01-23T07:56:12;101910.69;;;4.31;70.31
70841;BME280;58465;51.534;9.934;2023-01-23T07:58:37;101914.75;;;4.48;70.38
70841;BME280;58465;51.534;9.934;2023-01-23T08:01:07;101909.72;;;4.56;70.29
70841;BME280;58465;51.534;9.934;2023-01-23T08:03:33;101914.00;;;4.53;70.74
70841;BME280;58465;51.534;9.934;2023-01-23T08:05:58;101911.50;;;4.57;71.09
70841;BME280;58465;51.534;9.934;2023-01-23T08:08:24;101916.00;;;4.60;70.85
70841;BME280;58465;51.534;9.934;2023-01-23T08:10:49;101934.47;;;4.58;70.71
70841;BME280;58465;51.534;9.934;2023-01-23T08:13:14;101928.41;;;4.62;70.92
70841;BME280;58465;51.534;9.934;2023-01-23T08:15:39;101928.97;;;4.52;71.17
70841;BME280;58465;51.534;9.934;2023-01-23T08:18:05;101935.28;;;4.56;71.43
70841;BME280;58465;51.534;9.934;2023-01-23T08:20:30;101935.44;;;4.62;70.62
70841;BME280;58465;51.534;9.934;2023-01-23T08:22:55;101936.47;;;4.65;70.71
70841;BME280;58465;51.534;9.934;2023-01-23T08:25:23;101932.41;;;4.76;70.21
70841;BME280;58465;51.534;9.934;2023-01-23T08:27:48;101927.16;;;4.78;70.22
70841;BME280;58465;51.534;9.934;2023-01-23T08:30:13;101930.78;;;4.81;69.21
70841;BME280;58465;51.534;9.934;2023-01-23T08:32:39;101941.34;;;4.80;69.02
70841;BME280;58465;51.534;9.934;2023-01-23T08:35:04;101948.28;;;4.76;69.11
70841;BME280;58465;51.534;9.934;2023-01-23T08:37:30;101957.81;;;4.71;68.95
70841;BME280;58465;51.534;9.934;2023-01-23T08:39:57;101959.91;;;4.81;69.23
70841;BME280;58465;51.534;9.934;2023-01-23T08:42:22;101964.22;;;4.78;69.81
70841;BME280;58465;51.534;9.934;2023-01-23T08:44:47;101967.66;;;4.75;69.61
70841;BME280;58465;51.534;9.934;2023-01-23T08:47:12;101972.44;;;4.59;70.51
70841;BME280;58465;51.534;9.934;2023-01-23T08:49:38;101978.50;;;4.56;70.71
70841;BME280;58465;51.534;9.934;2023-01-23T08:52:03;101982.22;;;4.61;70.71
70841;BME280;58465;51.534;9.934;2023-01-23T08:54:29;101986.81;;;4.67;70.48
70841;BME280;58465;51.534;9.934;2023-01-23T08:56:55;101983.41;;;4.71;70.31
70841;BME280;58465;51.534;9.934;2023-01-23T08:59:20;101982.84;;;4.81;70.25
70841;BME280;58465;51.534;9.934;2023-01-23T09:01:45;101986.34;;;4.80;69.86
70841;BME280;58465;51.534;9.934;2023-01-23T09:04:12;101984.75;;;4.85;69.74
70841;BME280;58465;51.534;9.934;2023-01-23T09:06:37;101990.16;;;4.88;69.79
70841;BME280;58465;51.534;9.934;2023-01-23T09:09:03;101988.44;;;4.90;69.49
70841;BME280;58465;51.534;9.934;2023-01-23T09:11:29;101997.25;;;4.91;69.28
70841;BME280;58465;51.534;9.934;2023-01-23T09:13:54;101986.09;;;4.99;69.01
70841;BME280;58465;51.534;9.934;2023-01-23T09:16:19;101983.56;;;5.04;69.35
70841;BME280;58465;51.534;9.934;2023-01-23T09:18:44;101984.91;;;5.19;68.31
70841;BME280;58465;51.534;9.934;2023-01-23T09:21:12;101990.38;;;5.24;68.14
70841;BME280;58465;51.534;9.934;2023-01-23T09:23:38;101991.44;;;5.31;67.36
70841;BME280;58465;51.534;9.934;2023-01-23T09:26:06;101996.69;;;5.29;66.84
70841;BME280;58465;51.534;9.934;2023-01-23T09:28:32;101998.50;;;5.30;66.93
70841;BME280;58465;51.534;9.934;2023-01-23T09:31:06;102008.38;;;5.36;66.72
70841;BME280;58465;51.534;9.934;2023-01-23T09:33:34;102009.56;;;5.45;66.44
70841;BME280;58465;51.534;9.934;2023-01-23T09:36:00;102011.56;;;5.54;66.14
70841;BME280;58465;51.534;9.934;2023-01-23T09:38:25;102003.09;;;5.66;65.79
70841;BME280;58465;51.534;9.934;2023-01-23T09:40:54;101998.00;;;5.73;65.29
70841;BME280;58465;51.534;9.934;2023-01-23T09:43:34;102006.81;;;5.72;64.99
70841;BME280;58465;51.534;9.934;2023-01-23T09:48:42;102003.47;;;5.79;64.94
70841;BME280;58465;51.534;9.934;2023-01-23T09:51:33;102001.25;;;5.93;64.59
70841;BME280;58465;51.534;9.934;2023-01-23T09:54:13;102012.03;;;6.01;64.42
70841;BME280;58465;51.534;9.934;2023-01-23T09:56:44;102011.19;;;6.02;63.30
70841;BME280;58465;51.534;9.934;2023-01-23T10:01:45;102011.16;;;6.00;64.21
70841;BME280;58465;51.534;9.934;2023-01-23T10:04:11;102009.34;;;5.99;64.13
70841;BME280;58465;51.534;9.934;2023-01-23T10:09:40;102003.56;;;5.82;64.63
70841;BME280;58465;51.534;9.934;2023-01-23T10:12:31;102001.53;;;5.74;64.70
70841;BME280;58465;51.534;9.934;2023-01-23T10:15:12;102000.44;;;5.66;64.68
70841;BME280;58465;51.534;9.934;2023-01-23T10:20:26;101995.34;;;5.73;64.92
70841;BME280;58465;51.534;9.934;2023-01-23T10:25:41;101996.19;;;5.72;64.85
70841;BME280;58465;51.534;9.934;2023-01-23T10:28:38;101992.09;;;5.83;64.25
70841;BME280;58465;51.534;9.934;2023-01-23T10:33:57;101979.69;;;5.82;64.08
70841;BME280;58465;51.534;9.934;2023-01-23T10:36:29;101976.03;;;5.79;64.61
70841;BME280;58465;51.534;9.934;2023-01-23T10:39:05;101975.47;;;5.89;63.93
70841;BME280;58465;51.534;9.934;2023-01-23T10:41:33;101979.22;;;5.97;64.21
70841;BME280;58465;51.534;9.934;2023-01-23T10:43:59;101981.91;;;5.99;63.86
70841;BME280;58465;51.534;9.934;2023-01-23T10:46:44;101987.94;;;5.91;63.98
70841;BME280;58465;51.534;9.934;2023-01-23T10:49:10;101982.53;;;5.88;63.89
70841;BME280;58465;51.534;9.934;2023-01-23T10:56:30;101979.28;;;5.99;63.90
70841;BME280;58465;51.534;9.934;2023-01-23T10:58:58;101973.44;;;6.12;63.53
70841;BME280;58465;51.534;9.934;2023-01-23T11:01:27;101982.09;;;6.05;63.39
70841;BME280;58465;51.534;9.934;2023-01-23T11:03:53;101980.13;;;5.97;63.42
70841;BME280;58465;51.534;9.934;2023-01-23T11:06:20;101989.34;;;5.80;63.76
70841;BME280;58465;51.534;9.934;2023-01-23T11:08:57;101985.28;;;5.91;63.92
70841;BME280;58465;51.534;9.934;2023-01-23T11:11:26;101989.81;;;5.95;63.60
70841;BME280;58465;51.534;9.934;2023-01-23T11:14:04;101991.81;;;6.04;63.52
70841;BME280;58465;51.534;9.934;2023-01-23T11:16:30;101988.31;;;6.05;63.39
70841;BME280;58465;51.534;9.934;2023-01-23T11:19:07;101984.47;;;5.94;63.36
70841;BME280;58465;51.534;9.934;2023-01-23T11:21:51;101987.72;;;6.17;63.39
70841;BME280;58465;51.534;9.934;2023-01-23T11:27:00;101981.69;;;6.22;63.02
70841;BME280;58465;51.534;9.934;2023-01-23T11:29:28;101988.09;;;6.30;62.81
70841;BME280;58465;51.534;9.934;2023-01-23T11:32:04;101984.53;;;6.30;62.75
70841;BME280;58465;51.534;9.934;2023-01-23T11:34:37;101978.47;;;6.34;63.02
70841;BME280;58465;51.534;9.934;2023-01-23T11:37:07;101981.97;;;6.34;62.22
70841;BME280;58465;51.534;9.934;2023-01-23T11:42:00;101971.69;;;6.47;62.46
70841;BME280;58465;51.534;9.934;2023-01-23T11:44:27;101972.31;;;6.37;62.77
70841;BME280;58465;51.534;9.934;2023-01-23T11:52:40;101971.34;;;6.33;62.29
70841;BME280;58465;51.534;9.934;2023-01-23T11:58:11;101967.19;;;6.44;62.45
70841;BME280;58465;51.534;9.934;2023-01-23T12:00:54;101963.72;;;6.12;62.84
70841;BME280;58465;51.534;9.934;2023-01-23T12:09:28;101968.28;;;6.18;63.65
70841;BME280;58465;51.534;9.934;2023-01-23T12:12:12;101967.56;;;6.23;63.34
70841;BME280;58465;51.534;9.934;2023-01-23T12:26:12;101969.97;;;6.14;63.87
70841;BME280;58465;51.534;9.934;2023-01-23T12:28:54;101965.31;;;6.06;63.98
70841;BME280;58465;51.534;9.934;2023-01-23T12:31:42;101957.53;;;6.12;64.10
70841;BME280;58465;51.534;9.934;2023-01-23T12:39:48;101945.44;;;6.23;63.72
70841;BME280;58465;51.534;9.934;2023-01-23T12:42:33;101938.50;;;6.29;63.63
70841;BME280;58465;51.534;9.934;2023-01-23T12:50:39;101931.97;;;6.51;63.05
70841;BME280;58465;51.534;9.934;2023-01-23T12:53:10;101929.50;;;6.59;63.35
70841;BME280;58465;51.534;9.934;2023-01-23T12:55:56;101935.63;;;6.56;63.32
70841;BME280;58465;51.534;9.934;2023-01-23T12:58:25;101930.97;;;6.46;63.40
70841;BME280;58465;51.534;9.934;2023-01-23T13:01:05;101930.78;;;6.39;63.68
70841;BME280;58465;51.534;9.934;2023-01-23T13:03:47;101925.47;;;6.39;63.86
70841;BME280;58465;51.534;9.934;2023-01-23T13:09:11;101937.53;;;6.26;64.58
70841;BME280;58465;51.534;9.934;2023-01-23T13:14:46;101941.63;;;5.80;65.59
70841;BME280;58465;51.534;9.934;2023-01-23T13:20:25;101954.44;;;5.96;65.96
70841;BME280;58465;51.534;9.934;2023-01-23T13:23:28;101940.47;;;6.02;65.76
70841;BME280;58465;51.534;9.934;2023-01-23T13:28:42;101944.06;;;6.04;65.25
70841;BME280;58465;51.534;9.934;2023-01-23T13:33:53;101941.03;;;5.90;65.85
70841;BME280;58465;51.534;9.934;2023-01-23T13:36:24;101944.63;;;5.92;66.26
70841;BME280;58465;51.534;9.934;2023-01-23T13:38:59;101947.81;;;5.81;66.27
70841;BME280;58465;51.534;9.934;2023-01-23T13:41:32;101947.16;;;5.88;66.54
70841;BME280;58465;51.534;9.934;2023-01-23T13:47:14;101959.31;;;5.81;66.81
70841;BME280;58465;51.534;9.934;2023-01-23T13:50:07;101963.63;;;5.76;66.82
70841;BME280;58465;51.534;9.934;2023-01-23T13:52:42;101956.53;;;5.75;67.14
70841;BME280;58465;51.534;9.934;2023-01-23T13:55:33;101963.47;;;5.72;67.49
70841;BME280;58465;51.534;9.934;2023-01-23T13:58:25;101958.91;;;5.66;67.50
70841;BME280;58465;51.534;9.934;2023-01-23T14:01:00;101962.56;;;5.71;67.23
70841;BME280;58465;51.534;9.934;2023-01-23T14:03:51;101969.44;;;5.63;67.73
70841;BME280;58465;51.534;9.934;2023-01-23T14:06:38;101969.38;;;5.62;67.79
70841;BME280;58465;51.534;9.934;2023-01-23T14:09:19;101969.81;;;5.45;68.06
70841;BME280;58465;51.534;9.934;2023-01-23T14:11:44;101978.38;;;5.37;68.40
70841;BME280;58465;51.534;9.934;2023-01-23T14:14:10;101972.63;;;5.21;68.79
70841;BME280;58465;51.534;9.934;2023-01-23T14:16:54;101980.13;;;5.06;69.17
70841;BME280;58465;51.534;9.934;2023-01-23T14:19:23;101972.50;;;5.17;69.12
70841;BME280;58465;51.534;9.934;2023-01-23T14:21:55;101980.22;;;5.09;69.18
70841;BME280;58465;51.534;9.934;2023-01-23T14:24:23;101966.34;;;5.18;69.16
70841;BME280;58465;51.534;9.934;2023-01-23T14:26:52;101974.78;;;5.35;68.77
70841;BME280;58465;51.534;9.934;2023-01-23T14:29:24;101970.66;;;5.44;68.79
70841;BME280;58465;51.534;9.934;2023-01-23T14:31:50;101973.69;;;5.58;68.37
70841;BME280;58465;51.534;9.934;2023-01-23T14:34:24;101972.66;;;5.53;68.13
70841;BME280;58465;51.534;9.934;2023-01-23T14:37:03;101968.31;;;5.55;68.37